createdAt,value
2023-04-24T00:00:01.143Z,10.37
2023-04-24T00:01:01.618Z,10.34
2023-04-24T00:02:02.133Z,10.31
2023-04-24T00:03:02.201Z,10.35
2023-04-24T00:04:02.293Z,10.46
2023-04-24T00:05:02.351Z,10.38
2023-04-24T00:06:02.820Z,10.31
2023-04-24T00:07:03.267Z,10.26
2023-04-24T00:08:03.728Z,10.17
2023-04-24T00:09:04.168Z,10.17
2023-04-24T00:10:04.599Z,10.15
2023-04-24T00:11:05.028Z,10.02
2023-04-24T00:12:05.447Z,10.04
2023-04-24T00:13:05.896Z,10.09
2023-04-24T00:14:06.321Z,10.09
2023-04-24T00:15:06.835Z,10.15
2023-04-24T00:16:07.344Z,10.04
2023-04-24T00:17:07.859Z,10.05
2023-04-24T00:18:07.896Z,10.07
2023-04-24T00:19:08.365Z,10.10
2023-04-24T00:20:08.809Z,10.16
2023-04-24T00:21:09.257Z,10.04
2023-04-24T00:22:09.706Z,10.07
2023-04-24T00:23:10.142Z,10.26
2023-04-24T00:24:10.573Z,10.23
2023-04-24T00:25:11.006Z,10.12
2023-04-24T00:26:11.440Z,10.20
2023-04-24T00:27:11.868Z,10.22
2023-04-24T00:28:12.334Z,10.25
2023-04-24T00:29:12.782Z,10.20
2023-04-24T00:30:13.200Z,10.09
2023-04-24T00:31:13.638Z,10.19
2023-04-24T00:32:14.127Z,10.23
2023-04-24T00:33:14.581Z,10.26
2023-04-24T00:34:15.026Z,10.17
2023-04-24T00:35:15.485Z,10.41
2023-04-24T00:36:15.924Z,10.46
2023-04-24T00:37:16.387Z,10.35
2023-04-24T00:38:16.859Z,10.19
2023-04-24T00:39:17.306Z,10.20
2023-04-24T00:40:17.754Z,10.17
2023-04-24T00:41:18.196Z,10.10
2023-04-24T00:42:18.643Z,10.07
2023-04-24T00:43:19.081Z,10.10
2023-04-24T00:44:19.564Z,10.07
2023-04-24T00:45:20.005Z,10.25
2023-04-24T00:46:20.560Z,10.28
2023-04-24T00:47:20.475Z,10.35
2023-04-24T00:48:20.952Z,10.41
2023-04-24T00:49:21.416Z,10.49
2023-04-24T00:50:21.879Z,10.54
2023-04-24T00:51:22.317Z,10.57
2023-04-24T00:52:22.751Z,10.56
2023-04-24T00:53:23.182Z,10.54
2023-04-24T00:54:23.610Z,10.56
2023-04-24T00:55:24.057Z,10.53
2023-04-24T00:56:24.498Z,10.51
2023-04-24T00:57:24.942Z,10.59
2023-04-24T00:58:25.392Z,10.57
2023-04-24T00:59:25.820Z,10.38
2023-04-24T01:00:26.271Z,10.26
2023-04-24T01:01:26.737Z,10.20
2023-04-24T01:02:27.397Z,10.12
2023-04-24T01:03:27.566Z,10.10
2023-04-24T01:04:27.646Z,10.22
2023-04-24T01:05:27.539Z,10.30
2023-04-24T01:06:28.028Z,10.31
2023-04-24T01:07:28.470Z,10.26
2023-04-24T01:08:28.889Z,10.42
2023-04-24T01:09:29.326Z,10.44
2023-04-24T01:10:29.760Z,10.30
2023-04-24T01:11:30.322Z,10.46
2023-04-24T01:12:30.228Z,10.46
2023-04-24T01:13:30.668Z,10.31
2023-04-24T01:14:31.086Z,10.17
2023-04-24T01:15:31.536Z,10.20
2023-04-24T01:16:31.990Z,10.31
2023-04-24T01:17:32.453Z,10.37
2023-04-24T01:18:32.915Z,10.44
2023-04-24T01:19:33.353Z,10.41
2023-04-24T01:20:33.827Z,10.37
2023-04-24T01:21:34.280Z,10.23
2023-04-24T01:22:34.730Z,10.35
2023-04-24T01:23:35.172Z,10.28
2023-04-24T01:24:35.617Z,10.16
2023-04-24T01:25:36.126Z,10.16
2023-04-24T01:26:36.587Z,10.05
2023-04-24T01:27:37.010Z,10.02
2023-04-24T01:28:37.428Z,9.98
2023-04-24T01:29:37.837Z,10.05
2023-04-24T01:30:38.237Z,10.01
2023-04-24T01:31:38.713Z,10.16
2023-04-24T01:32:39.400Z,10.12
2023-04-24T01:33:39.282Z,10.10
2023-04-24T01:34:39.708Z,10.20
2023-04-24T01:35:40.127Z,10.30
2023-04-24T01:36:40.586Z,10.33
2023-04-24T01:37:41.037Z,10.42
2023-04-24T01:38:41.527Z,10.44
2023-04-24T01:39:42.401Z,10.44
2023-04-24T01:40:42.465Z,10.41
2023-04-24T01:41:42.918Z,10.28
2023-04-24T01:42:43.359Z,10.13
2023-04-24T01:43:43.792Z,10.19
2023-04-24T01:44:44.228Z,10.22
2023-04-24T01:45:44.682Z,10.34
2023-04-24T01:46:45.154Z,10.30
2023-04-24T01:47:45.642Z,10.19
2023-04-24T01:48:46.107Z,10.13
2023-04-24T01:49:46.556Z,10.07
2023-04-24T01:50:46.987Z,10.09
2023-04-24T01:51:47.426Z,10.17
2023-04-24T01:52:47.880Z,10.20
2023-04-24T01:53:48.318Z,10.25
2023-04-24T01:54:48.816Z,10.13
2023-04-24T01:55:49.267Z,10.19
2023-04-24T01:56:49.699Z,10.02
2023-04-24T01:57:50.109Z,10.12
2023-04-24T01:58:50.530Z,10.22
2023-04-24T01:59:50.972Z,10.20
2023-04-24T02:00:51.454Z,10.16
2023-04-24T02:01:51.973Z,10.02
2023-04-24T02:02:52.662Z,10.10
2023-04-24T02:03:52.760Z,10.13
2023-04-24T02:04:52.706Z,10.02
2023-04-24T02:05:53.114Z,9.98
2023-04-24T02:06:53.522Z,9.98
2023-04-24T02:07:53.957Z,10.13
2023-04-24T02:08:54.400Z,10.20
2023-04-24T02:09:54.818Z,10.26
2023-04-24T02:10:55.241Z,10.17
2023-04-24T02:11:55.679Z,10.09
2023-04-24T02:12:56.140Z,10.15
2023-04-24T02:13:56.574Z,10.19
2023-04-24T02:14:56.998Z,10.23
2023-04-24T02:15:57.462Z,10.35
2023-04-24T02:16:57.915Z,10.38
2023-04-24T02:17:58.408Z,10.28
2023-04-24T02:18:58.869Z,10.38
2023-04-24T02:19:59.326Z,10.17
2023-04-24T02:20:59.756Z,10.19
2023-04-24T02:22:00.181Z,10.04
2023-04-24T02:23:00.606Z,9.98
2023-04-24T02:24:01.062Z,9.84
2023-04-24T02:25:01.532Z,9.84
2023-04-24T02:26:01.966Z,9.80
2023-04-24T02:27:02.387Z,9.76
2023-04-24T02:28:02.779Z,9.80
2023-04-24T02:29:03.189Z,9.91
2023-04-24T02:30:03.654Z,10.02
2023-04-24T02:31:04.119Z,10.05
2023-04-24T02:32:04.623Z,10.20
2023-04-24T02:33:04.558Z,10.17
2023-04-24T02:34:04.994Z,10.31
2023-04-24T02:35:05.435Z,10.25
2023-04-24T02:36:05.921Z,10.28
2023-04-24T02:37:06.391Z,10.33
2023-04-24T02:38:06.839Z,10.19
2023-04-24T02:39:07.307Z,10.28
2023-04-24T02:40:07.768Z,10.23
2023-04-24T02:41:08.223Z,10.25
2023-04-24T02:42:08.691Z,10.25
2023-04-24T02:43:09.147Z,10.20
2023-04-24T02:44:09.608Z,10.16
2023-04-24T02:45:10.095Z,10.17
2023-04-24T02:46:10.598Z,10.17
2023-04-24T02:47:10.528Z,10.20
2023-04-24T02:48:10.993Z,10.16
2023-04-24T02:49:11.440Z,10.01
2023-04-24T02:50:11.892Z,10.10
2023-04-24T02:51:12.357Z,10.09
2023-04-24T02:52:12.844Z,10.05
2023-04-24T02:53:13.306Z,10.12
2023-04-24T02:54:13.774Z,10.22
2023-04-24T02:55:14.245Z,10.31
2023-04-24T02:56:14.713Z,10.38
2023-04-24T02:57:15.158Z,10.48
2023-04-24T02:58:15.602Z,10.48
2023-04-24T02:59:16.058Z,10.41
2023-04-24T03:00:16.489Z,10.53
2023-04-24T03:01:16.962Z,10.60
2023-04-24T03:02:17.496Z,10.49
2023-04-24T03:03:18.167Z,10.42
2023-04-24T03:04:18.240Z,10.38
2023-04-24T03:05:18.194Z,10.41
2023-04-24T03:06:18.650Z,10.40
2023-04-24T03:07:19.100Z,10.37
2023-04-24T03:08:19.561Z,10.37
2023-04-24T03:09:20.014Z,10.48
2023-04-24T03:10:20.464Z,10.63
2023-04-24T03:11:20.923Z,10.63
2023-04-24T03:12:21.359Z,10.68
2023-04-24T03:13:21.802Z,10.74
2023-04-24T03:14:22.229Z,10.75
2023-04-24T03:15:22.655Z,10.75
2023-04-24T03:16:23.108Z,10.67
2023-04-24T03:17:23.577Z,10.60
2023-04-24T03:18:24.006Z,10.44
2023-04-24T03:19:24.422Z,10.25
2023-04-24T03:20:24.870Z,10.19
2023-04-24T03:21:25.310Z,10.12
2023-04-24T03:22:25.758Z,10.17
2023-04-24T03:23:26.200Z,10.19
2023-04-24T03:24:26.642Z,10.16
2023-04-24T03:25:27.071Z,10.25
2023-04-24T03:26:27.521Z,10.28
2023-04-24T03:27:27.942Z,10.37
2023-04-24T03:28:28.384Z,10.48
2023-04-24T03:29:30.354Z,10.40
2023-04-24T03:30:29.173Z,10.56
2023-04-24T03:31:29.616Z,10.57
2023-04-24T03:32:30.113Z,10.51
2023-04-24T03:33:30.568Z,10.40
2023-04-24T03:34:31.013Z,10.34
2023-04-24T03:35:31.464Z,10.19
2023-04-24T03:36:31.899Z,10.22
2023-04-24T03:37:32.333Z,10.22
2023-04-24T03:38:32.777Z,10.20
2023-04-24T03:39:33.215Z,10.16
2023-04-24T03:40:33.642Z,10.01
2023-04-24T03:41:34.150Z,10.13
2023-04-24T03:42:34.614Z,10.07
2023-04-24T03:43:35.052Z,10.02
2023-04-24T03:44:35.495Z,10.02
2023-04-24T03:45:35.902Z,9.99
2023-04-24T03:46:36.331Z,9.92
2023-04-24T03:47:36.799Z,10.02
2023-04-24T03:48:37.296Z,10.13
2023-04-24T03:49:37.739Z,10.05
2023-04-24T03:50:38.159Z,10.04
2023-04-24T03:51:38.616Z,10.10
2023-04-24T03:52:39.055Z,10.19
2023-04-24T03:53:39.502Z,10.28
2023-04-24T03:54:39.947Z,10.31
2023-04-24T03:55:40.378Z,10.35
2023-04-24T03:56:40.811Z,10.42
2023-04-24T03:57:41.266Z,10.35
2023-04-24T03:58:41.713Z,10.49
2023-04-24T03:59:42.368Z,10.42
2023-04-24T04:00:42.390Z,10.35
2023-04-24T04:01:44.106Z,10.34
2023-04-24T04:02:43.073Z,10.34
2023-04-24T04:03:43.212Z,10.30
2023-04-24T04:04:43.558Z,10.28
2023-04-24T04:05:43.516Z,10.16
2023-04-24T04:06:43.977Z,10.10
2023-04-24T04:07:44.415Z,10.05
2023-04-24T04:08:44.833Z,10.02
2023-04-24T04:09:45.445Z,9.97
2023-04-24T04:10:45.366Z,9.91
2023-04-24T04:11:45.779Z,9.86
2023-04-24T04:12:46.220Z,9.91
2023-04-24T04:13:46.625Z,9.99
2023-04-24T04:14:47.099Z,10.16
2023-04-24T04:15:47.543Z,10.20
2023-04-24T04:16:48.077Z,10.19
2023-04-24T04:17:48.014Z,10.12
2023-04-24T04:18:48.499Z,10.07
2023-04-24T04:19:48.954Z,10.05
2023-04-24T04:20:49.402Z,10.07
2023-04-24T04:21:49.842Z,10.02
2023-04-24T04:22:50.285Z,10.12
2023-04-24T04:23:50.745Z,10.15
2023-04-24T04:24:51.209Z,9.99
2023-04-24T04:25:51.637Z,9.87
2023-04-24T04:26:52.287Z,9.86
2023-04-24T04:27:52.232Z,9.86
2023-04-24T04:28:52.643Z,9.92
2023-04-24T04:29:53.086Z,9.86
2023-04-24T04:30:53.506Z,9.87
2023-04-24T04:31:53.970Z,9.83
2023-04-24T04:32:54.426Z,9.80
2023-04-24T04:33:54.838Z,9.87
2023-04-24T04:34:55.246Z,9.91
2023-04-24T04:35:55.635Z,9.83
2023-04-24T04:36:56.030Z,9.86
2023-04-24T04:37:56.427Z,9.99
2023-04-24T04:38:56.871Z,10.12
2023-04-24T04:39:57.309Z,10.20
2023-04-24T04:40:57.741Z,10.22
2023-04-24T04:41:58.179Z,10.15
2023-04-24T04:42:58.628Z,10.15
2023-04-24T04:43:59.089Z,10.10
2023-04-24T04:44:59.535Z,10.01
2023-04-24T04:46:00.009Z,10.13
2023-04-24T04:47:00.502Z,10.22
2023-04-24T04:48:00.980Z,10.26
2023-04-24T04:49:01.480Z,10.25
2023-04-24T04:50:01.950Z,10.33
2023-04-24T04:51:02.402Z,10.40
2023-04-24T04:52:02.872Z,10.35
2023-04-24T04:53:03.345Z,10.28
2023-04-24T04:54:03.802Z,10.25
2023-04-24T04:55:04.294Z,10.30
2023-04-24T04:56:04.733Z,10.26
2023-04-24T04:57:05.192Z,10.23
2023-04-24T04:58:05.651Z,10.17
2023-04-24T04:59:06.128Z,10.23
2023-04-24T05:00:06.593Z,10.20
2023-04-24T05:01:07.097Z,10.12
2023-04-24T05:02:07.681Z,10.05
2023-04-24T05:03:20.173Z,10.05
2023-04-24T05:04:07.991Z,10.07
2023-04-24T05:05:07.987Z,10.17
2023-04-24T05:06:08.461Z,10.20
2023-04-24T05:07:08.918Z,10.22
2023-04-24T05:08:19.792Z,10.25
2023-04-24T05:09:09.490Z,10.19
2023-04-24T05:10:09.952Z,10.17
2023-04-24T05:11:10.405Z,10.15
2023-04-24T05:12:10.865Z,10.10
2023-04-24T05:13:11.595Z,10.09
2023-04-24T05:14:11.634Z,10.02
2023-04-24T05:15:12.075Z,10.02
2023-04-24T05:16:12.497Z,9.98
2023-04-24T05:17:12.962Z,9.92
2023-04-24T05:18:13.445Z,9.91
2023-04-24T05:19:13.867Z,9.87
2023-04-24T05:20:14.280Z,9.89
2023-04-24T05:21:14.716Z,9.89
2023-04-24T05:22:15.151Z,9.76
2023-04-24T05:23:15.578Z,9.76
2023-04-24T05:24:16.010Z,9.82
2023-04-24T05:25:16.447Z,9.86
2023-04-24T05:26:16.867Z,9.82
2023-04-24T05:27:17.298Z,9.79
2023-04-24T05:28:17.730Z,9.86
2023-04-24T05:29:18.164Z,9.80
2023-04-24T05:30:18.589Z,9.79
2023-04-24T05:31:19.032Z,9.73
2023-04-24T05:32:19.500Z,9.69
2023-04-24T05:33:19.920Z,9.72
2023-04-24T05:34:20.345Z,9.74
2023-04-24T05:35:20.776Z,9.73
2023-04-24T05:36:21.217Z,9.69
2023-04-24T05:37:21.657Z,9.74
2023-04-24T05:38:22.137Z,9.77
2023-04-24T05:39:22.665Z,9.73
2023-04-24T05:40:23.108Z,9.72
2023-04-24T05:41:23.534Z,9.73
2023-04-24T05:42:23.959Z,9.72
2023-04-24T05:43:24.372Z,9.66
2023-04-24T05:44:24.809Z,9.68
2023-04-24T05:45:25.257Z,9.72
2023-04-24T05:46:25.723Z,9.72
2023-04-24T05:47:26.184Z,9.69
2023-04-24T05:48:26.628Z,9.64
2023-04-24T05:49:27.072Z,9.65
2023-04-24T05:50:27.486Z,9.69
2023-04-24T05:51:27.915Z,9.69
2023-04-24T05:52:28.349Z,9.76
2023-04-24T05:53:28.791Z,9.73
2023-04-24T05:54:29.219Z,9.55
2023-04-24T05:55:29.658Z,9.73
2023-04-24T05:56:30.083Z,9.76
2023-04-24T05:57:30.514Z,9.76
2023-04-24T05:58:31.027Z,9.74
2023-04-24T05:59:31.451Z,9.69
2023-04-24T06:00:31.886Z,9.66
2023-04-24T06:01:32.377Z,9.64
2023-04-24T06:02:32.968Z,9.69
2023-04-24T06:03:33.015Z,9.68
2023-04-24T06:04:33.056Z,9.66
2023-04-24T06:05:33.112Z,9.74
2023-04-24T06:06:33.004Z,9.72
2023-04-24T06:07:33.442Z,9.76
2023-04-24T06:08:33.893Z,9.79
2023-04-24T06:09:34.350Z,9.77
2023-04-24T06:10:34.805Z,9.79
2023-04-24T06:11:35.251Z,9.82
2023-04-24T06:12:35.691Z,9.77
2023-04-24T06:13:36.122Z,9.76
2023-04-24T06:14:36.562Z,9.83
2023-04-24T06:15:37.002Z,9.76
2023-04-24T06:16:37.506Z,9.77
2023-04-24T06:17:37.575Z,9.72
2023-04-24T06:18:37.427Z,9.72
2023-04-24T06:19:37.866Z,9.72
2023-04-24T06:20:38.300Z,9.73
2023-04-24T06:21:38.734Z,9.77
2023-04-24T06:22:39.184Z,9.84
2023-04-24T06:23:39.616Z,9.84
2023-04-24T06:24:40.038Z,9.77
2023-04-24T06:25:40.467Z,9.82
2023-04-24T06:26:40.896Z,9.86
2023-04-24T06:27:41.367Z,9.82
2023-04-24T06:28:41.859Z,9.92
2023-04-24T06:29:42.470Z,9.95
2023-04-24T06:30:42.468Z,9.98
2023-04-24T06:31:42.918Z,9.83
2023-04-24T06:32:43.388Z,9.89
2023-04-24T06:33:43.831Z,10.01
2023-04-24T06:34:44.281Z,9.97
2023-04-24T06:35:44.747Z,9.99
2023-04-24T06:36:45.218Z,10.02
2023-04-24T06:37:45.679Z,10.01
2023-04-24T06:38:46.141Z,10.04
2023-04-24T06:39:46.614Z,10.02
2023-04-24T06:40:47.084Z,9.99
2023-04-24T06:41:47.524Z,9.95
2023-04-24T06:42:47.977Z,10.02
2023-04-24T06:43:48.462Z,10.04
2023-04-24T06:44:48.970Z,10.10
2023-04-24T06:45:49.485Z,10.13
2023-04-24T06:46:49.972Z,10.12
2023-04-24T06:47:50.638Z,10.12
2023-04-24T06:48:50.593Z,10.09
2023-04-24T06:49:51.064Z,10.07
2023-04-24T06:50:51.524Z,10.02
2023-04-24T06:51:51.963Z,10.02
2023-04-24T06:52:52.408Z,10.04
2023-04-24T06:53:52.885Z,9.94
2023-04-24T06:54:53.379Z,9.94
2023-04-24T06:55:53.874Z,10.10
2023-04-24T06:56:54.354Z,9.99
2023-04-24T06:57:54.834Z,10.09
2023-04-24T06:58:55.309Z,10.04
2023-04-24T06:59:55.755Z,10.07
2023-04-24T07:00:56.262Z,10.01
2023-04-24T07:01:56.857Z,10.01
2023-04-24T07:02:56.847Z,10.05
2023-04-24T07:03:56.926Z,10.10
2023-04-24T07:04:56.926Z,10.19
2023-04-24T07:05:57.392Z,10.23
2023-04-24T07:06:57.838Z,10.28
2023-04-24T07:07:58.283Z,10.28
2023-04-24T07:08:58.758Z,10.37
2023-04-24T07:09:59.233Z,10.37
2023-04-24T07:10:59.706Z,10.38
2023-04-24T07:12:00.183Z,10.35
2023-04-24T07:13:00.645Z,10.49
2023-04-24T07:14:01.110Z,10.49
2023-04-24T07:15:01.584Z,10.51
2023-04-24T07:16:02.083Z,10.51
2023-04-24T07:17:02.583Z,10.48
2023-04-24T07:18:05.607Z,10.57
2023-04-24T07:19:03.596Z,10.63
2023-04-24T07:20:04.084Z,10.63
2023-04-24T07:21:04.577Z,10.67
2023-04-24T07:22:05.063Z,10.59
2023-04-24T07:23:05.541Z,10.76
2023-04-24T07:24:06.034Z,10.82
2023-04-24T07:25:06.549Z,10.82
2023-04-24T07:26:07.047Z,10.90
2023-04-24T07:27:07.569Z,10.94
2023-04-24T07:28:08.061Z,11.25
2023-04-24T07:29:08.569Z,11.30
2023-04-24T07:30:09.099Z,11.36
2023-04-24T07:31:09.598Z,11.33
2023-04-24T07:32:10.055Z,11.26
2023-04-24T07:33:10.566Z,11.43
2023-04-24T07:34:11.056Z,11.59
2023-04-24T07:35:11.545Z,11.44
2023-04-24T07:36:12.032Z,11.48
2023-04-24T07:37:12.503Z,11.60
2023-04-24T07:38:12.962Z,11.65
2023-04-24T07:39:13.420Z,11.65
2023-04-24T07:40:13.914Z,11.63
2023-04-24T07:41:14.402Z,11.63
2023-04-24T07:42:14.893Z,11.51
2023-04-24T07:43:15.360Z,11.62
2023-04-24T07:44:15.908Z,11.57
2023-04-24T07:45:16.424Z,11.52
2023-04-24T07:46:16.925Z,11.50
2023-04-24T07:47:16.932Z,11.65
2023-04-24T07:48:16.936Z,11.59
2023-04-24T07:49:19.184Z,11.62
2023-04-24T07:50:16.925Z,11.51
2023-04-24T07:51:17.412Z,11.48
2023-04-24T07:52:17.881Z,11.45
2023-04-24T07:53:18.350Z,11.44
2023-04-24T07:54:18.863Z,11.55
2023-04-24T07:55:21.006Z,11.50
2023-04-24T07:56:19.677Z,11.51
2023-04-24T07:57:20.150Z,11.65
2023-04-24T07:58:20.619Z,11.57
2023-04-24T07:59:21.175Z,11.47
2023-04-24T08:00:20.969Z,11.55
2023-04-24T08:01:21.431Z,11.54
2023-04-24T08:02:21.898Z,11.55
2023-04-24T08:03:22.458Z,11.54
2023-04-24T08:04:22.562Z,11.59
2023-04-24T08:05:22.701Z,11.54
2023-04-24T08:06:22.711Z,11.41
2023-04-24T08:07:23.174Z,11.22
2023-04-24T08:08:23.698Z,11.23
2023-04-24T08:09:23.809Z,11.18
2023-04-24T08:10:23.869Z,11.18
2023-04-24T08:11:24.966Z,11.19
2023-04-24T08:12:24.407Z,11.18
2023-04-24T08:13:24.893Z,11.18
2023-04-24T08:14:25.386Z,11.12
2023-04-24T08:15:25.876Z,11.14
2023-04-24T08:16:26.373Z,11.12
2023-04-24T08:17:27.155Z,11.07
2023-04-24T08:18:27.065Z,11.14
2023-04-24T08:19:27.524Z,11.04
2023-04-24T08:20:28.012Z,11.07
2023-04-24T08:21:28.471Z,10.94
2023-04-24T08:22:28.919Z,10.96
2023-04-24T08:23:29.389Z,10.97
2023-04-24T08:24:29.871Z,11.07
2023-04-24T08:25:30.332Z,11.07
2023-04-24T08:26:30.882Z,11.10
2023-04-24T08:27:31.390Z,11.35
2023-04-24T08:28:31.867Z,11.54
2023-04-24T08:29:32.353Z,11.66
2023-04-24T08:30:32.826Z,11.66
2023-04-24T08:31:33.353Z,11.73
2023-04-24T08:32:33.933Z,11.72
2023-04-24T08:33:33.828Z,11.80
2023-04-24T08:34:34.318Z,11.86
2023-04-24T08:35:34.791Z,11.84
2023-04-24T08:36:46.035Z,11.78
2023-04-24T08:37:35.394Z,11.66
2023-04-24T08:38:35.844Z,11.68
2023-04-24T08:39:36.311Z,11.75
2023-04-24T08:40:36.784Z,11.73
2023-04-24T08:41:37.317Z,11.70
2023-04-24T08:42:37.240Z,11.68
2023-04-24T08:43:37.700Z,11.69
2023-04-24T08:44:38.474Z,11.65
2023-04-24T08:45:38.374Z,11.63
2023-04-24T08:46:38.917Z,11.65
2023-04-24T08:47:39.448Z,11.63
2023-04-24T08:48:39.352Z,11.63
2023-04-24T08:49:39.818Z,11.65
2023-04-24T08:50:40.303Z,11.60
2023-04-24T08:51:40.803Z,11.57
2023-04-24T08:52:41.270Z,11.55
2023-04-24T08:53:41.749Z,11.36
2023-04-24T08:54:42.238Z,11.43
2023-04-24T08:55:42.711Z,11.26
2023-04-24T08:56:43.197Z,11.29
2023-04-24T08:57:43.659Z,11.36
2023-04-24T08:58:44.150Z,11.41
2023-04-24T08:59:44.898Z,11.40
2023-04-24T09:00:44.930Z,11.43
2023-04-24T09:01:45.501Z,11.43
2023-04-24T09:02:45.637Z,11.40
2023-04-24T09:03:45.781Z,11.44
2023-04-24T09:04:45.901Z,11.47
2023-04-24T09:05:45.895Z,11.43
2023-04-24T09:06:46.390Z,11.51
2023-04-24T09:07:46.898Z,11.59
2023-04-24T09:08:47.362Z,11.68
2023-04-24T09:09:47.828Z,11.66
2023-04-24T09:10:51.071Z,11.84
2023-04-24T09:11:48.259Z,11.95
2023-04-24T09:12:48.741Z,12.09
2023-04-24T09:13:49.224Z,12.25
2023-04-24T09:14:49.702Z,12.39
2023-04-24T09:15:50.169Z,12.62
2023-04-24T09:16:50.736Z,12.60
2023-04-24T09:17:50.719Z,12.76
2023-04-24T09:18:51.210Z,12.64
2023-04-24T09:19:51.686Z,12.55
2023-04-24T09:20:52.143Z,12.61
2023-04-24T09:21:52.619Z,12.55
2023-04-24T09:22:53.090Z,12.54
2023-04-24T09:23:53.532Z,12.40
2023-04-24T09:24:53.975Z,12.46
2023-04-24T09:25:54.406Z,12.54
2023-04-24T09:26:54.868Z,12.47
2023-04-24T09:27:55.335Z,12.49
2023-04-24T09:28:55.772Z,12.50
2023-04-24T09:29:56.212Z,12.57
2023-04-24T09:30:56.651Z,12.62
2023-04-24T09:31:57.275Z,12.55
2023-04-24T09:32:57.303Z,12.43
2023-04-24T09:33:58.533Z,12.32
2023-04-24T09:34:57.258Z,12.27
2023-04-24T09:35:57.717Z,12.13
2023-04-24T09:36:58.158Z,12.20
2023-04-24T09:37:58.618Z,12.17
2023-04-24T09:38:59.071Z,12.17
2023-04-24T09:39:59.522Z,12.12
2023-04-24T09:40:59.994Z,12.04
2023-04-24T09:42:00.439Z,12.02
2023-04-24T09:43:00.913Z,11.86
2023-04-24T09:44:01.364Z,11.84
2023-04-24T09:45:11.894Z,11.83
2023-04-24T09:46:02.008Z,11.86
2023-04-24T09:47:01.909Z,11.78
2023-04-24T09:48:02.455Z,11.72
2023-04-24T09:49:02.418Z,11.72
2023-04-24T09:50:02.934Z,11.70
2023-04-24T09:51:02.813Z,11.72
2023-04-24T09:52:03.270Z,11.70
2023-04-24T09:53:03.754Z,11.72
2023-04-24T09:54:04.043Z,11.70
2023-04-24T09:55:04.507Z,11.68
2023-04-24T09:56:04.981Z,11.52
2023-04-24T09:57:05.436Z,11.45
2023-04-24T09:58:05.883Z,11.41
2023-04-24T09:59:06.324Z,11.27
2023-04-24T10:00:06.779Z,11.23
2023-04-24T10:01:07.326Z,11.15
2023-04-24T10:02:07.290Z,11.25
2023-04-24T10:03:07.871Z,11.22
2023-04-24T10:04:07.926Z,11.19
2023-04-24T10:05:08.450Z,11.17
2023-04-24T10:06:08.968Z,11.12
2023-04-24T10:07:09.433Z,11.04
2023-04-24T10:08:09.900Z,11.10
2023-04-24T10:09:10.365Z,11.11
2023-04-24T10:10:10.836Z,11.17
2023-04-24T10:11:11.315Z,11.23
2023-04-24T10:12:11.825Z,11.26
2023-04-24T10:13:12.323Z,11.10
2023-04-24T10:14:12.828Z,11.22
2023-04-24T10:15:13.316Z,11.32
2023-04-24T10:16:13.820Z,11.32
2023-04-24T10:17:13.735Z,11.48
2023-04-24T10:18:14.207Z,11.47
2023-04-24T10:19:14.682Z,11.57
2023-04-24T10:20:15.146Z,11.45
2023-04-24T10:21:15.623Z,11.57
2023-04-24T10:22:16.076Z,11.83
2023-04-24T10:23:16.546Z,12.03
2023-04-24T10:24:17.023Z,12.18
2023-04-24T10:25:17.505Z,12.20
2023-04-24T10:26:17.956Z,12.35
2023-04-24T10:27:18.406Z,12.61
2023-04-24T10:28:18.847Z,12.80
2023-04-24T10:29:19.292Z,12.94
2023-04-24T10:30:19.742Z,13.00
2023-04-24T10:31:20.209Z,12.86
2023-04-24T10:32:20.154Z,12.75
2023-04-24T10:33:20.068Z,12.55
2023-04-24T10:34:20.548Z,12.42
2023-04-24T10:35:20.985Z,12.25
2023-04-24T10:36:21.439Z,12.07
2023-04-24T10:37:21.899Z,11.90
2023-04-24T10:38:22.365Z,11.81
2023-04-24T10:39:27.650Z,11.75
2023-04-24T10:40:22.961Z,11.68
2023-04-24T10:41:23.434Z,11.68
2023-04-24T10:42:23.913Z,11.60
2023-04-24T10:43:24.367Z,11.62
2023-04-24T10:44:24.807Z,11.66
2023-04-24T10:45:25.249Z,11.69
2023-04-24T10:46:25.744Z,11.68
2023-04-24T10:47:25.646Z,11.68
2023-04-24T10:48:26.077Z,11.70
2023-04-24T10:49:26.514Z,11.80
2023-04-24T10:50:26.980Z,11.78
2023-04-24T10:51:27.452Z,11.77
2023-04-24T10:52:27.908Z,11.78
2023-04-24T10:53:28.377Z,11.77
2023-04-24T10:54:28.857Z,11.88
2023-04-24T10:55:29.318Z,12.07
2023-04-24T10:56:29.756Z,12.22
2023-04-24T10:57:30.209Z,12.37
2023-04-24T10:58:30.669Z,12.43
2023-04-24T10:59:31.114Z,12.39
2023-04-24T11:00:31.604Z,12.37
2023-04-24T11:01:32.138Z,12.42
2023-04-24T11:02:32.118Z,12.60
2023-04-24T11:03:32.281Z,12.72
2023-04-24T11:04:32.361Z,13.00
2023-04-24T11:05:32.245Z,13.09
2023-04-24T11:06:32.217Z,13.18
2023-04-24T11:07:32.664Z,13.09
2023-04-24T11:08:33.120Z,12.83
2023-04-24T11:09:33.561Z,12.54
2023-04-24T11:10:33.990Z,12.67
2023-04-24T11:11:34.423Z,12.65
2023-04-24T11:12:34.846Z,12.47
2023-04-24T11:13:35.294Z,12.32
2023-04-24T11:14:35.731Z,12.42
2023-04-24T11:15:36.164Z,12.42
2023-04-24T11:16:36.807Z,12.43
2023-04-24T11:17:36.823Z,12.45
2023-04-24T11:18:37.357Z,12.27
2023-04-24T11:19:37.236Z,12.31
2023-04-24T11:20:37.694Z,12.29
2023-04-24T11:21:38.142Z,12.29
2023-04-24T11:22:38.594Z,12.02
2023-04-24T11:23:39.044Z,12.07
2023-04-24T11:24:39.486Z,12.17
2023-04-24T11:25:39.928Z,12.24
2023-04-24T11:26:40.378Z,12.27
2023-04-24T11:27:40.856Z,12.25
2023-04-24T11:28:42.799Z,12.17
2023-04-24T11:29:41.542Z,12.12
2023-04-24T11:30:42.002Z,12.17
2023-04-24T11:31:42.676Z,12.24
2023-04-24T11:32:42.675Z,12.27
2023-04-24T11:33:42.641Z,12.21
2023-04-24T11:34:43.097Z,12.29
2023-04-24T11:35:43.609Z,12.29
2023-04-24T11:36:44.085Z,12.20
2023-04-24T11:37:44.663Z,12.10
2023-04-24T11:38:44.561Z,12.09
2023-04-24T11:39:45.033Z,12.04
2023-04-24T11:40:45.497Z,12.04
2023-04-24T11:41:45.957Z,12.10
2023-04-24T11:42:46.448Z,12.04
2023-04-24T11:43:46.912Z,12.15
2023-04-24T11:44:47.121Z,12.17
2023-04-24T11:45:47.141Z,12.17
2023-04-24T11:46:47.608Z,12.28
2023-04-24T11:47:48.109Z,12.32
2023-04-24T11:48:48.039Z,12.22
2023-04-24T11:49:48.492Z,12.21
2023-04-24T11:50:49.014Z,12.12
2023-04-24T11:51:53.587Z,12.15
2023-04-24T11:52:49.507Z,12.06
2023-04-24T11:53:57.876Z,11.97
2023-04-24T11:54:50.059Z,11.97
2023-04-24T11:55:50.530Z,11.95
2023-04-24T11:56:51.979Z,11.99
2023-04-24T11:57:51.259Z,11.99
2023-04-24T11:58:51.730Z,11.91
2023-04-24T11:59:52.470Z,11.87
2023-04-24T12:00:52.466Z,11.88
2023-04-24T12:01:52.350Z,11.87
2023-04-24T12:02:52.982Z,11.78
2023-04-24T12:03:53.194Z,11.66
2023-04-24T12:04:53.490Z,11.77
2023-04-24T12:05:53.228Z,11.78
2023-04-24T12:06:53.184Z,11.75
2023-04-24T12:07:53.656Z,11.63
2023-04-24T12:08:55.184Z,11.62
2023-04-24T12:09:54.085Z,11.69
2023-04-24T12:10:54.571Z,11.77
2023-04-24T12:11:55.046Z,11.84
2023-04-24T12:12:55.514Z,11.88
2023-04-24T12:13:55.462Z,12.06
2023-04-24T12:14:55.887Z,12.35
2023-04-24T12:15:56.356Z,12.40
2023-04-24T12:16:56.851Z,12.37
2023-04-24T12:17:57.352Z,12.46
2023-04-24T12:18:57.262Z,12.58
2023-04-24T12:19:57.737Z,12.62
2023-04-24T12:21:01.344Z,12.76
2023-04-24T12:21:58.394Z,12.93
2023-04-24T12:22:58.923Z,12.87
2023-04-24T12:23:58.696Z,12.70
2023-04-24T12:24:59.127Z,12.53
2023-04-24T12:25:59.557Z,12.45
2023-04-24T12:26:59.990Z,12.42
2023-04-24T12:28:00.405Z,12.31
2023-04-24T12:29:00.826Z,12.15
2023-04-24T12:30:01.260Z,12.04
2023-04-24T12:31:01.737Z,12.00
2023-04-24T12:32:01.635Z,12.03
2023-04-24T12:33:02.138Z,12.06
2023-04-24T12:34:02.042Z,12.03
2023-04-24T12:35:02.479Z,12.04
2023-04-24T12:36:02.921Z,11.97
2023-04-24T12:37:03.347Z,11.94
2023-04-24T12:38:03.803Z,11.94
2023-04-24T12:39:04.252Z,11.91
2023-04-24T12:40:04.716Z,11.86
2023-04-24T12:41:05.228Z,11.87
2023-04-24T12:42:05.676Z,11.84
2023-04-24T12:43:06.122Z,11.94
2023-04-24T12:44:06.558Z,12.03
2023-04-24T12:45:07.029Z,12.03
2023-04-24T12:46:07.488Z,12.09
2023-04-24T12:47:08.011Z,12.21
2023-04-24T12:48:07.987Z,12.32
2023-04-24T12:49:07.907Z,12.42
2023-04-24T12:50:08.402Z,12.54
2023-04-24T12:51:08.865Z,12.55
2023-04-24T12:52:09.329Z,12.62
2023-04-24T12:53:09.797Z,12.72
2023-04-24T12:54:10.255Z,12.73
2023-04-24T12:55:10.699Z,12.79
2023-04-24T12:56:11.193Z,12.70
2023-04-24T12:57:11.620Z,12.62
2023-04-24T12:58:12.034Z,12.75
2023-04-24T12:59:12.461Z,12.75
2023-04-24T13:00:12.917Z,12.64
2023-04-24T13:01:13.413Z,12.65